createdAt,value
2018-07-22T00:01:31.991Z,19.63
2018-07-22T00:03:59.164Z,18.80
2018-07-22T00:06:26.311Z,18.60
2018-07-22T00:08:53.776Z,19.33
2018-07-22T00:11:20.930Z,18.17
2018-07-22T00:13:48.063Z,18.33
2018-07-22T00:16:15.176Z,17.10
2018-07-22T00:18:42.331Z,18.93
2018-07-22T00:21:09.481Z,17.37
2018-07-22T00:23:36.581Z,17.63
2018-07-22T00:26:03.814Z,19.30
2018-07-22T00:28:30.987Z,19.00
2018-07-22T00:30:58.248Z,17.67
2018-07-22T00:33:25.384Z,18.40
2018-07-22T00:35:52.516Z,16.40
2018-07-22T00:38:19.652Z,17.87
2018-07-22T00:40:46.811Z,17.20
2018-07-22T00:43:13.975Z,16.03
2018-07-22T00:45:41.164Z,17.20
2018-07-22T00:48:08.305Z,16.20
2018-07-22T00:50:35.416Z,15.87
2018-07-22T00:53:02.599Z,17.50
2018-07-22T00:55:29.835Z,18.47
2018-07-22T00:57:57.004Z,19.20
2018-07-22T01:00:24.181Z,19.90
2018-07-22T01:02:51.284Z,19.10
2018-07-22T01:05:18.460Z,20.57
2018-07-22T01:07:45.593Z,21.13
2018-07-22T01:10:12.768Z,19.57
2018-07-22T01:12:39.900Z,23.10
2018-07-22T01:15:07.092Z,23.60
2018-07-22T01:17:34.243Z,22.43
2018-07-22T01:20:08.948Z,24.70
2018-07-22T01:22:36.072Z,25.40
2018-07-22T01:25:04.268Z,23.00
2018-07-22T01:27:31.603Z,24.77
2018-07-22T01:29:58.760Z,25.70
2018-07-22T01:32:25.896Z,25.60
2018-07-22T01:34:53.052Z,30.87
2018-07-22T01:37:20.216Z,28.17
2018-07-22T01:39:47.731Z,27.37
2018-07-22T01:42:14.883Z,28.33
2018-07-22T01:44:42.069Z,28.80
2018-07-22T01:47:09.229Z,30.50
2018-07-22T01:49:36.380Z,28.03
2018-07-22T01:52:03.510Z,29.80
2018-07-22T01:54:30.679Z,32.00
2018-07-22T01:56:57.815Z,27.90
2018-07-22T01:59:24.981Z,29.63
2018-07-22T02:01:52.163Z,31.23
2018-07-22T02:04:19.300Z,30.67
2018-07-22T02:06:46.432Z,30.80
2018-07-22T02:09:13.592Z,31.13
2018-07-22T02:11:40.720Z,29.20
2018-07-22T02:14:08.291Z,33.17
2018-07-22T02:16:35.547Z,32.37
2018-07-22T02:19:02.726Z,32.60
2018-07-22T02:21:29.892Z,33.00
2018-07-22T02:23:57.036Z,32.63
2018-07-22T02:26:24.299Z,31.17
2018-07-22T02:28:51.428Z,33.20
2018-07-22T02:31:18.553Z,34.20
2018-07-22T02:33:45.679Z,35.13
2018-07-22T02:36:12.916Z,33.67
2018-07-22T02:38:40.084Z,36.00
2018-07-22T02:41:07.221Z,35.27
2018-07-22T02:43:34.392Z,33.40
2018-07-22T02:46:01.560Z,32.23
2018-07-22T02:48:28.736Z,33.53
2018-07-22T02:50:55.859Z,33.10
2018-07-22T02:53:23.048Z,31.70
2018-07-22T02:55:50.235Z,32.13
2018-07-22T02:58:17.536Z,31.57
2018-07-22T03:00:44.676Z,31.20
2018-07-22T03:03:11.867Z,29.50
2018-07-22T03:05:38.984Z,32.10
2018-07-22T03:08:06.161Z,32.67
2018-07-22T03:10:33.372Z,28.87
2018-07-22T03:13:00.572Z,29.70
2018-07-22T03:15:27.716Z,27.70
2018-07-22T03:17:54.852Z,30.60
2018-07-22T03:20:22.040Z,28.37
2018-07-22T03:22:49.203Z,28.87
2018-07-22T03:25:16.300Z,27.53
2018-07-22T03:27:43.428Z,28.60
2018-07-22T03:30:10.588Z,29.37
2018-07-22T03:32:37.699Z,29.00
2018-07-22T03:35:05.268Z,30.70
2018-07-22T03:37:32.432Z,27.27
2018-07-22T03:39:59.596Z,28.53
2018-07-22T03:42:27.097Z,29.63
2018-07-22T03:44:54.280Z,29.20
2018-07-22T03:47:21.455Z,30.10
2018-07-22T03:49:48.544Z,33.83
2018-07-22T03:52:15.660Z,33.33
2018-07-22T03:54:43.102Z,34.80
2018-07-22T03:57:10.336Z,32.93
2018-07-22T03:59:37.464Z,32.20
2018-07-22T04:02:04.764Z,33.17
2018-07-22T04:04:31.937Z,31.67
2018-07-22T04:06:59.047Z,30.03
2018-07-22T04:09:26.166Z,30.63
2018-07-22T04:11:53.274Z,31.77
2018-07-22T04:14:20.403Z,30.33
2018-07-22T04:16:47.537Z,30.90
2018-07-22T04:19:14.689Z,30.60
2018-07-22T04:21:41.818Z,29.63
2018-07-22T04:24:08.948Z,29.93
2018-07-22T04:26:36.072Z,29.80
2018-07-22T04:29:03.213Z,29.10
2018-07-22T04:31:30.314Z,28.60
2018-07-22T04:33:57.416Z,31.33
2018-07-22T04:36:24.649Z,31.17
2018-07-22T04:38:51.805Z,30.77
2018-07-22T04:41:18.985Z,28.67
2018-07-22T04:43:46.132Z,28.87
2018-07-22T04:46:13.307Z,27.53
2018-07-22T04:48:40.445Z,26.70
2018-07-22T04:51:07.529Z,27.10
2018-07-22T04:53:34.658Z,24.87
2018-07-22T04:56:02.210Z,27.87
2018-07-22T04:58:29.379Z,25.53
2018-07-22T05:00:56.559Z,23.80
2018-07-22T05:03:23.715Z,26.03
2018-07-22T05:05:50.812Z,27.00
2018-07-22T05:08:17.973Z,25.80
2018-07-22T05:10:45.105Z,26.03
2018-07-22T05:13:12.224Z,27.57
2018-07-22T05:15:39.384Z,26.40
2018-07-22T05:18:06.552Z,26.13
2018-07-22T05:20:33.724Z,28.60
2018-07-22T05:23:00.812Z,26.60
2018-07-22T05:25:27.963Z,27.37
2018-07-22T05:27:55.100Z,26.47
2018-07-22T05:30:22.311Z,26.77
2018-07-22T05:32:49.423Z,28.40
2018-07-22T05:35:16.623Z,28.87
2018-07-22T05:37:43.836Z,28.53
2018-07-22T05:40:10.988Z,25.50
2018-07-22T05:42:38.125Z,24.90
2018-07-22T05:45:05.313Z,26.60
2018-07-22T05:47:32.499Z,26.50
2018-07-22T05:49:59.684Z,26.20
2018-07-22T05:52:26.805Z,26.30
2018-07-22T05:54:53.959Z,28.50
2018-07-22T05:57:21.108Z,27.20
2018-07-22T05:59:48.258Z,28.47
2018-07-22T06:02:15.429Z,29.20
2018-07-22T06:04:42.524Z,28.20
2018-07-22T06:07:09.705Z,28.37
2018-07-22T06:09:36.852Z,27.30
2018-07-22T06:12:03.991Z,29.40
2018-07-22T06:14:31.108Z,29.53
2018-07-22T06:16:58.249Z,28.23
2018-07-22T06:19:25.473Z,29.87
2018-07-22T06:21:52.627Z,29.60
2018-07-22T06:24:19.780Z,28.93
2018-07-22T06:26:46.985Z,33.00
2018-07-22T06:29:14.128Z,30.80
2018-07-22T06:31:41.258Z,32.97
2018-07-22T06:34:08.395Z,31.63
2018-07-22T06:36:35.576Z,31.33
2018-07-22T06:39:04.026Z,31.30
2018-07-22T06:41:31.225Z,31.83
2018-07-22T06:43:58.341Z,31.20
2018-07-22T06:46:25.448Z,30.57
2018-07-22T06:48:52.552Z,30.43
2018-07-22T06:51:19.705Z,30.97
2018-07-22T06:53:46.805Z,28.97
2018-07-22T06:56:14.031Z,30.40
2018-07-22T06:58:41.181Z,30.00
2018-07-22T07:01:08.345Z,28.70
2018-07-22T07:03:35.480Z,30.87
2018-07-22T07:06:02.572Z,30.07
2018-07-22T07:08:29.756Z,29.30
2018-07-22T07:10:56.963Z,29.00
2018-07-22T07:13:24.060Z,30.00
2018-07-22T07:15:51.300Z,27.90
2018-07-22T07:18:18.440Z,28.50
2018-07-22T07:20:45.628Z,29.80
2018-07-22T07:23:12.805Z,26.53
2018-07-22T07:25:40.008Z,28.33
2018-07-22T07:28:07.153Z,30.17
2018-07-22T07:30:34.328Z,29.43
2018-07-22T07:33:01.501Z,29.63
2018-07-22T07:35:28.798Z,31.30
2018-07-22T07:37:56.016Z,29.73
2018-07-22T07:40:23.216Z,26.63
2018-07-22T07:42:50.383Z,27.27
2018-07-22T07:45:17.550Z,28.20
2018-07-22T07:47:44.764Z,29.17
2018-07-22T07:50:11.992Z,28.27
2018-07-22T07:52:39.386Z,27.40
2018-07-22T07:55:06.580Z,30.23
2018-07-22T07:57:33.729Z,27.17
2018-07-22T08:00:00.885Z,28.77
2018-07-22T08:02:28.049Z,31.07
2018-07-22T08:04:55.230Z,29.00
2018-07-22T08:07:22.409Z,30.97
2018-07-22T08:09:49.583Z,28.80
2018-07-22T08:12:16.792Z,28.10
2018-07-22T08:14:44.021Z,26.80
2018-07-22T08:17:11.197Z,27.23
2018-07-22T08:19:38.328Z,28.20
2018-07-22T08:22:05.745Z,27.30
2018-07-22T08:24:32.930Z,24.43
2018-07-22T08:27:00.124Z,28.90
2018-07-22T08:29:31.234Z,28.90
2018-07-22T08:31:58.849Z,26.57
2018-07-22T08:34:26.024Z,27.90
2018-07-22T08:36:53.341Z,28.63
2018-07-22T08:39:22.728Z,27.27
2018-07-22T08:41:50.653Z,27.03
2018-07-22T08:44:17.799Z,26.30
2018-07-22T08:46:45.004Z,27.37
2018-07-22T08:49:12.191Z,26.50
2018-07-22T08:51:39.448Z,24.90
2018-07-22T08:54:06.663Z,27.40
2018-07-22T08:56:34.187Z,26.30
2018-07-22T08:59:01.536Z,26.10
2018-07-22T09:01:29.540Z,25.80
2018-07-22T09:03:56.740Z,28.00
2018-07-22T09:06:24.581Z,25.70
2018-07-22T09:08:51.785Z,28.27
2018-07-22T09:11:18.950Z,25.07
2018-07-22T09:13:46.093Z,26.53
2018-07-22T09:16:13.384Z,25.23
2018-07-22T09:18:40.616Z,26.13
2018-07-22T09:21:08.257Z,25.77
2018-07-22T09:23:35.445Z,25.10
2018-07-22T09:26:02.700Z,27.47
2018-07-22T09:28:29.898Z,25.00
2018-07-22T09:30:57.176Z,26.07
2018-07-22T09:33:24.383Z,26.03
2018-07-22T09:35:51.577Z,25.77
2018-07-22T09:38:18.791Z,25.67
2018-07-22T09:40:45.991Z,24.70
2018-07-22T09:43:13.143Z,25.47
2018-07-22T09:45:40.344Z,25.73
2018-07-22T09:48:07.669Z,24.50
2018-07-22T09:50:41.592Z,25.00
2018-07-22T09:53:08.763Z,25.87
2018-07-22T09:55:35.945Z,24.30
2018-07-22T09:58:03.168Z,25.00
2018-07-22T10:00:35.337Z,22.97
2018-07-22T10:03:02.519Z,25.50
2018-07-22T10:05:29.716Z,23.70
2018-07-22T10:07:57.050Z,23.43
2018-07-22T10:10:24.273Z,22.50
2018-07-22T10:12:51.440Z,23.30
2018-07-22T10:15:18.658Z,22.83
2018-07-22T10:17:45.828Z,24.50
2018-07-22T10:20:12.977Z,24.90
2018-07-22T10:22:40.316Z,23.73
2018-07-22T10:25:07.879Z,21.53
2018-07-22T10:27:35.153Z,22.37
2018-07-22T10:30:02.757Z,24.60
2018-07-22T10:32:29.909Z,22.13
2018-07-22T10:34:57.047Z,22.37
2018-07-22T10:37:24.467Z,22.40
2018-07-22T10:39:51.602Z,22.77
2018-07-22T10:42:18.765Z,23.43
2018-07-22T10:44:45.867Z,22.53
2018-07-22T10:47:13.075Z,24.20
2018-07-22T10:49:40.252Z,23.37
2018-07-22T10:52:07.420Z,21.13
2018-07-22T10:54:34.568Z,21.40
2018-07-22T10:57:01.700Z,22.63
2018-07-22T10:59:29.095Z,21.30
2018-07-22T11:01:56.208Z,20.20
2018-07-22T11:04:23.335Z,20.90
2018-07-22T11:06:50.531Z,20.40
2018-07-22T11:09:17.722Z,20.73
2018-07-22T11:11:44.888Z,20.87
2018-07-22T11:14:12.034Z,21.30
2018-07-22T11:16:39.217Z,21.53
2018-07-22T11:19:06.356Z,21.23
2018-07-22T11:21:33.532Z,21.47
2018-07-22T11:24:00.709Z,18.57
2018-07-22T11:26:27.943Z,20.37
2018-07-22T11:28:55.213Z,20.10
2018-07-22T11:31:22.300Z,20.23
2018-07-22T11:33:49.429Z,21.97
2018-07-22T11:36:16.599Z,20.13
2018-07-22T11:38:43.797Z,20.93
2018-07-22T11:41:10.992Z,21.90
2018-07-22T11:43:38.147Z,21.20
2018-07-22T11:46:05.336Z,19.07
2018-07-22T11:48:32.492Z,18.70
2018-07-22T11:50:59.637Z,17.47
2018-07-22T11:53:26.736Z,17.50
2018-07-22T11:55:53.916Z,17.80
2018-07-22T11:58:21.053Z,18.00
2018-07-22T12:00:49.060Z,19.63
2018-07-22T12:03:17.827Z,18.60
2018-07-22T12:05:44.966Z,18.50
2018-07-22T12:08:12.122Z,21.70
2018-07-22T12:10:39.396Z,19.37
2018-07-22T12:13:06.653Z,17.20
2018-07-22T12:15:33.828Z,16.47
2018-07-22T12:18:11.608Z,18.37
2018-07-22T12:20:39.096Z,16.67
2018-07-22T12:23:06.266Z,15.33
2018-07-22T12:25:33.529Z,15.40
2018-07-22T12:28:00.724Z,14.97
2018-07-22T12:30:27.881Z,14.07
2018-07-22T12:32:55.053Z,14.93
2018-07-22T12:35:22.333Z,12.90
2018-07-22T12:37:49.484Z,14.60
2018-07-22T12:40:16.702Z,14.57
2018-07-22T12:42:43.913Z,14.40
2018-07-22T12:45:11.180Z,14.20
2018-07-22T12:47:38.371Z,12.93
2018-07-22T12:50:05.571Z,13.87
2018-07-22T12:52:32.835Z,13.60
2018-07-22T12:55:00.033Z,12.97
2018-07-22T12:57:27.313Z,13.70
2018-07-22T12:59:54.539Z,14.50
2018-07-22T13:02:28.644Z,13.43
2018-07-22T13:04:55.785Z,14.93
2018-07-22T13:07:22.918Z,15.03
2018-07-22T13:09:50.123Z,13.00
2018-07-22T13:12:17.316Z,14.97
2018-07-22T13:14:44.544Z,14.53
2018-07-22T13:17:11.746Z,14.87
2018-07-22T13:19:38.913Z,13.77
2018-07-22T13:22:06.092Z,13.10
2018-07-22T13:24:33.259Z,13.37
2018-07-22T13:27:00.439Z,11.60
2018-07-22T13:29:27.601Z,11.53
2018-07-22T13:31:54.848Z,11.80
2018-07-22T13:34:22.026Z,14.60
2018-07-22T13:36:49.242Z,14.10
2018-07-22T13:39:16.412Z,15.70
2018-07-22T13:41:43.645Z,14.90
2018-07-22T13:44:10.830Z,15.77
2018-07-22T13:46:38.097Z,15.23
2018-07-22T13:49:05.417Z,13.90
2018-07-22T13:51:32.637Z,14.97
2018-07-22T13:53:59.794Z,15.73
2018-07-22T13:56:26.945Z,13.60
2018-07-22T13:58:54.101Z,13.27
2018-07-22T14:01:21.340Z,12.50
2018-07-22T14:03:48.572Z,14.93
2018-07-22T14:06:15.733Z,13.03
2018-07-22T14:08:42.907Z,14.33
2018-07-22T14:11:10.415Z,14.60
2018-07-22T14:13:37.623Z,13.20
2018-07-22T14:16:04.884Z,13.97
2018-07-22T14:18:32.080Z,13.67
2018-07-22T14:20:59.219Z,12.70
2018-07-22T14:23:26.375Z,14.27
2018-07-22T14:25:53.792Z,14.17
2018-07-22T14:28:21.193Z,13.67
2018-07-22T14:30:48.422Z,13.70
2018-07-22T14:33:15.608Z,11.87
2018-07-22T14:35:42.852Z,12.70
2018-07-22T14:38:10.049Z,14.23
2018-07-22T14:40:37.342Z,13.33
2018-07-22T14:43:04.919Z,13.80
2018-07-22T14:45:32.091Z,13.73
2018-07-22T14:47:59.300Z,12.20
2018-07-22T14:50:26.464Z,13.20
2018-07-22T14:52:53.746Z,12.10
2018-07-22T14:55:21.082Z,12.43
2018-07-22T14:57:48.287Z,11.90
2018-07-22T15:00:15.507Z,14.27
2018-07-22T15:02:42.646Z,11.70
2018-07-22T15:05:09.812Z,14.37
2018-07-22T15:07:37.028Z,12.43
2018-07-22T15:10:04.667Z,13.30
2018-07-22T15:12:31.877Z,13.13
2018-07-22T15:14:59.031Z,12.80
2018-07-22T15:17:26.197Z,13.90
2018-07-22T15:19:53.371Z,12.17
2018-07-22T15:22:20.559Z,12.80
2018-07-22T15:24:47.685Z,11.63
2018-07-22T15:27:14.888Z,13.03
2018-07-22T15:29:42.146Z,14.03
2018-07-22T15:32:09.384Z,13.90
2018-07-22T15:34:36.547Z,13.57
2018-07-22T15:37:03.866Z,12.93
2018-07-22T15:39:31.055Z,12.40
2018-07-22T15:41:58.255Z,13.00
2018-07-22T15:44:25.533Z,12.47
2018-07-22T15:46:52.756Z,13.60
2018-07-22T15:49:20.008Z,13.50
2018-07-22T16:04:51.810Z,13.93
2018-07-22T16:07:18.979Z,12.83
2018-07-22T16:09:52.996Z,12.67
2018-07-22T16:12:20.226Z,13.37
2018-07-22T16:14:47.454Z,12.80
2018-07-22T16:17:14.636Z,12.70
2018-07-22T16:19:44.801Z,13.20
2018-07-22T16:22:11.979Z,13.77
2018-07-22T16:24:45.984Z,13.13
2018-07-22T16:27:13.182Z,13.00
2018-07-22T16:29:40.482Z,13.83
2018-07-22T16:32:07.729Z,13.80
2018-07-22T16:34:35.161Z,14.23
2018-07-22T16:37:02.305Z,13.23
2018-07-22T16:39:29.476Z,13.60
2018-07-22T16:41:56.671Z,14.80
2018-07-22T16:44:23.867Z,13.40
2018-07-22T16:46:51.121Z,13.57
2018-07-22T16:49:18.284Z,13.70
2018-07-22T16:51:45.497Z,14.20
2018-07-22T16:54:13.462Z,13.40
2018-07-22T16:56:40.607Z,12.23
2018-07-22T16:59:07.858Z,12.87
2018-07-22T17:01:35.166Z,14.60
2018-07-22T17:04:02.343Z,14.67
2018-07-22T17:06:29.563Z,14.20
2018-07-22T17:08:56.741Z,13.77
2018-07-22T17:11:23.983Z,13.70
2018-07-22T17:13:51.136Z,14.80
2018-07-22T17:16:18.320Z,13.73
2018-07-22T17:18:45.612Z,13.80
2018-07-22T17:21:12.815Z,15.43
2018-07-22T17:23:39.984Z,14.17
2018-07-22T17:26:07.248Z,13.70
2018-07-22T17:28:34.475Z,15.80
2018-07-22T17:31:01.735Z,13.50
2018-07-22T17:33:28.932Z,14.23
2018-07-22T17:35:56.116Z,15.90
2018-07-22T17:38:23.342Z,15.53
2018-07-22T17:40:50.505Z,15.80
2018-07-22T17:43:17.738Z,15.70
2018-07-22T17:45:44.878Z,15.70
2018-07-22T17:48:12.053Z,14.70
2018-07-22T17:50:39.181Z,15.10
2018-07-22T17:53:06.353Z,15.30
2018-07-22T17:55:33.575Z,15.73
2018-07-22T17:58:00.740Z,15.80
2018-07-22T18:00:27.904Z,15.10
2018-07-22T18:03:33.879Z,14.67
2018-07-22T18:06:01.161Z,15.10
2018-07-22T18:08:28.415Z,15.10
2018-07-22T18:10:55.968Z,14.47
2018-07-22T18:13:23.127Z,15.63
2018-07-22T18:15:50.317Z,14.50
2018-07-22T18:18:17.456Z,14.70
2018-07-22T18:20:45.977Z,14.30
2018-07-22T18:23:13.259Z,16.17
2018-07-22T18:25:41.095Z,15.77
2018-07-22T18:28:08.282Z,15.90
2018-07-22T18:30:35.446Z,14.63
2018-07-22T18:33:02.649Z,15.77
2018-07-22T18:35:29.876Z,14.93
2018-07-22T18:37:57.577Z,14.30
2018-07-22T18:40:25.705Z,15.20
2018-07-22T18:42:53.670Z,14.97
2018-07-22T18:45:21.361Z,15.57
2018-07-22T18:47:48.930Z,14.77
2018-07-22T18:50:16.391Z,15.10
2018-07-22T18:52:43.900Z,15.60
2018-07-22T18:55:11.088Z,14.60
2018-07-22T18:57:39.089Z,16.07
2018-07-22T19:00:20.597Z,15.20
2018-07-22T19:02:48.127Z,15.63
2018-07-22T19:05:15.676Z,16.07
2018-07-22T19:07:43.174Z,15.90
2018-07-22T19:10:10.683Z,16.63
2018-07-22T19:12:37.952Z,16.87
2018-07-22T19:15:05.568Z,18.40
2018-07-22T19:17:32.845Z,16.90
2018-07-22T19:20:00.035Z,17.43
2018-07-22T19:22:27.236Z,21.50
2018-07-22T19:24:54.414Z,19.07
2018-07-22T19:27:21.684Z,17.53
2018-07-22T19:29:48.972Z,15.73
2018-07-22T19:32:16.172Z,17.30
2018-07-22T19:34:43.327Z,17.50
2018-07-22T19:37:10.469Z,16.30
2018-07-22T19:39:37.927Z,17.50
2018-07-22T19:42:05.461Z,16.00
2018-07-22T19:44:32.615Z,16.33
2018-07-22T19:46:59.803Z,16.90
2018-07-22T19:49:27.015Z,17.77
2018-07-22T19:51:54.171Z,16.70
2018-07-22T19:54:21.335Z,17.60
2018-07-22T19:56:48.518Z,17.47
2018-07-22T19:59:15.731Z,17.60
2018-07-22T20:01:43.048Z,17.03
2018-07-22T20:04:11.852Z,16.70
2018-07-22T20:06:39.316Z,17.30
2018-07-22T20:09:07.293Z,18.13
2018-07-22T20:11:34.661Z,18.13
2018-07-22T20:14:01.939Z,17.70
2018-07-22T20:16:29.121Z,18.27
2018-07-22T20:18:56.308Z,18.27
2018-07-22T20:21:23.581Z,19.03
2018-07-22T20:23:50.782Z,19.47
2018-07-22T20:26:18.008Z,21.63
2018-07-22T20:28:45.202Z,18.70
2018-07-22T20:31:12.346Z,18.90
2018-07-22T20:33:39.654Z,19.70
2018-07-22T20:36:06.863Z,18.97
2018-07-22T20:38:34.200Z,19.33
2018-07-22T20:41:01.393Z,19.50
2018-07-22T20:43:28.501Z,20.20
2018-07-22T20:45:55.717Z,19.80
2018-07-22T20:48:22.916Z,19.07
2018-07-22T20:50:50.033Z,20.60
2018-07-22T20:53:17.174Z,20.53
2018-07-22T20:55:44.313Z,20.53
2018-07-22T20:58:11.508Z,23.20
2018-07-22T21:00:38.673Z,23.70
2018-07-22T21:03:05.811Z,23.10
2018-07-22T21:05:33.256Z,22.67
2018-07-22T21:08:00.476Z,21.87
2018-07-22T21:10:27.580Z,22.40
2018-07-22T21:13:06.309Z,21.60
2018-07-22T21:15:33.526Z,20.73
2018-07-22T21:18:00.727Z,21.13
2018-07-22T21:20:27.860Z,21.77
2018-07-22T21:22:54.999Z,22.00
2018-07-22T21:25:22.176Z,21.93
2018-07-22T21:27:49.307Z,21.53
2018-07-22T21:30:16.499Z,20.73
2018-07-22T21:32:43.697Z,21.90
2018-07-22T21:35:10.915Z,22.63
2018-07-22T21:37:38.324Z,24.67
2018-07-22T21:40:05.771Z,22.83
2018-07-22T21:42:33.064Z,21.73
2018-07-22T21:45:00.396Z,22.47
2018-07-22T21:47:27.589Z,22.40
2018-07-22T21:49:54.785Z,22.33
2018-07-22T21:52:22.268Z,22.23
2018-07-22T21:54:49.757Z,25.57
2018-07-22T21:57:16.926Z,25.70
2018-07-22T21:59:44.065Z,23.20
2018-07-22T22:02:11.320Z,21.20
2018-07-22T22:04:38.487Z,22.73
2018-07-22T22:07:05.690Z,23.93
2018-07-22T22:09:33.008Z,23.30
2018-07-22T22:12:00.144Z,24.67
2018-07-22T22:14:27.340Z,23.10
2018-07-22T22:16:54.480Z,23.47
2018-07-22T22:19:21.674Z,23.40
2018-07-22T22:21:48.844Z,24.47
2018-07-22T22:24:16.033Z,23.83
2018-07-22T22:26:43.158Z,25.03
2018-07-22T22:29:10.689Z,23.10
2018-07-22T22:31:37.905Z,23.57
2018-07-22T22:34:05.280Z,23.77
2018-07-22T22:36:32.821Z,23.00
2018-07-22T22:38:59.953Z,23.27
2018-07-22T22:41:27.053Z,23.80
2018-07-22T22:43:54.197Z,23.57
2018-07-22T22:46:28.101Z,22.20
2018-07-22T22:48:55.261Z,23.60
2018-07-22T22:51:22.425Z,23.07
2018-07-22T22:53:49.556Z,24.07
2018-07-22T22:56:16.720Z,23.23
2018-07-22T22:58:55.419Z,23.50
2018-07-22T23:01:22.565Z,22.90
2018-07-22T23:03:49.719Z,21.80
2018-07-22T23:06:16.868Z,23.90
2018-07-22T23:08:44.052Z,23.33
2018-07-22T23:11:11.205Z,24.70
2018-07-22T23:13:38.374Z,25.87
2018-07-22T23:16:05.528Z,23.30
2018-07-22T23:18:32.688Z,24.40
2018-07-22T23:20:59.812Z,22.80
2018-07-22T23:23:26.981Z,22.30
2018-07-22T23:25:54.132Z,23.63
2018-07-22T23:28:21.285Z,22.00
2018-07-22T23:30:48.436Z,23.50
2018-07-22T23:33:15.532Z,22.83
2018-07-22T23:35:42.694Z,23.67
2018-07-22T23:38:09.886Z,23.87
2018-07-22T23:40:37.028Z,22.27
2018-07-22T23:43:04.221Z,22.83
2018-07-22T23:45:31.316Z,22.80
2018-07-22T23:47:58.431Z,23.70
2018-07-22T23:50:25.656Z,23.27
2018-07-22T23:52:52.829Z,25.03
2018-07-22T23:55:19.955Z,23.30
2018-07-22T23:57:47.077Z,24.73
